Weather at Luxembourg-Findel International Airport

Public forecast

Using degrees Celsius for public forecast. Weather courtesy of forecast.io.

Current aviation weather report (METAR) for Luxembourg-Findel International Airport

Report is more than 6 hours old.

2022/11/14 15:20 (retrieved 2 years ago)

ELLX 141520Z 20007KT 6000 SCT003 BKN006 05/05 Q1011 TEMPO 4000 BR BKN004

Aviation forecast (TAF) for Luxembourg-Findel International Airport

Forecast is more than 12 hours old.

2023/02/22 20:06 Ammendment (retrieved 1 year ago)

TAF AMD ELLX 222000Z 2220/2324 23005KT 6000 -RA SCT003 BKN007 TEMPO 2220/2310 1500 BR BKN003 BECMG 2310/2312 36005KT BKN015